CheckWX is a tool to help pilots better visualize weather data.  It is not intended as a substitute for an official pre-flight weather briefing.

13:05:54 UTC

KLNS TAF
Lancaster Airport
Lancaster, Pennsylvania, USA
KLNS 181148Z 1812/1912 00000KT 1/2SM FG BKN002 TEMPO 1812/1814 3SM BR SCT002 FM181400 VRB03KT P6SM VCSH SCT050 FM181800 19005KT P6SM VCTS BKN050CB FM190000 VRB03KT P6SM SCT100 FM191000 VRB02KT 2SM BR SCT200

Aug-18@
12:00 UTC

Aug-18 @ 12:00 UTC

Aug-18@
14:00 UTC

Aug-18 @ 14:00 UTC

KLNS 181148Z 1812/1912 00000KT 1/2SM FG BKN002
Conditions
Fog
Cloud Levels
  • Broken at 200' AGL

Aug-18@
12:00 UTC

Aug-18 @ 12:00 UTC

Aug-18@
14:00 UTC

Aug-18 @ 14:00 UTC

TEMPO 1812/1814 3SM BR SCT002

Temporary

Temporary Changes expected for less than half the time period

Conditions
Mist
Cloud Levels
  • Scattered at 200' AGL

Aug-18@
14:00 UTC

Aug-18 @ 14:00 UTC

Aug-18@
18:00 UTC

Aug-18 @ 18:00 UTC

FM181400 VRB03KT P6SM VCSH SCT050

From

From Standard forecast or significant change

Wind
  • Variable at 3 KTS
Cloud Levels
  • Scattered at 5,000' AGL

Aug-18@
18:00 UTC

Aug-18 @ 18:00 UTC

Aug-19@
00:00 UTC

Aug-19 @ 00:00 UTC

FM181800 19005KT P6SM VCTS BKN050CB

From

From Standard forecast or significant change

Wind
  • 190° at 5 KTS
Conditions
Area Thunderstorm
Cloud Levels
  • Broken at 5,000' AGL

Aug-19@
00:00 UTC

Aug-19 @ 00:00 UTC

Aug-19@
10:00 UTC

Aug-19 @ 10:00 UTC

FM190000 VRB03KT P6SM SCT100

From

From Standard forecast or significant change

Wind
  • Variable at 3 KTS
Cloud Levels
  • Scattered at 10,000' AGL

Aug-19@
10:00 UTC

Aug-19 @ 10:00 UTC

Aug-19@
12:00 UTC

Aug-19 @ 12:00 UTC

FM191000 VRB02KT 2SM BR SCT200

From

From Standard forecast or significant change

Wind
  • Variable at 2 KTS
Conditions
Mist
Cloud Levels
  • Scattered at 20,000' AGL